Station Historical Data
Daily Summary for July 14, 2017 Units:  Both    English   Metric
« Previous Day
Next Day »
Daily Weekly Monthly Yearly Custom
  High: Low: Average:
Temperature: 80.5 °F /  26.9 °C 66.8 °F /  19.3 °C 73.3 °F /  22.9 °C
Dew Point: 71.5 °F /  21.9 °C 59.9 °F /  15.5 °C 67.1 °F /  19.5 °C
Humidity: 93% 62% 81%
Wind Speed: 14.0mph /  22.5km/h - 3.9mph /  6.3km/h
Wind Gust: 19.0mph /  30.6km/h - -
Wind- - WSW
Pressure: 29.96 in /  1014.4 hPa 29.91 in /  1012.8 hPa -
Precipitation: 0.00 in /  0 mm    
Historical Graphs
 
 
Tabular Data for July 14, 2017
Time Temperature Dew Point Pressure Wind Wind Speed Wind Gust Humidity Rainfall Rate (Hourly)
00:04 68.8 °F /  20.4 °C 65.7 °F /  18.7 °C 29.93in /  1013.4hPa ENE 1.0mph /  1.6km/h 5.0mph /  8km/h 90% 0.00in /  0mm
00:09 68.6 °F /  20.3 °C 65.5 °F /  18.6 °C 29.93in /  1013.4hPa Calm   3.0mph /  4.8km/h 90% 0.00in /  0mm
00:14 68.6 °F /  20.3 °C 65.5 °F /  18.6 °C 29.93in /  1013.4hPa East 1.0mph /  1.6km/h 5.0mph /  8km/h 90% 0.00in /  0mm
00:19 68.5 °F /  20.3 °C 65.4 °F /  18.6 °C 29.93in /  1013.4hPa East 1.0mph /  1.6km/h 5.0mph /  8km/h 90% 0.00in /  0mm
00:24 68.5 °F /  20.3 °C 65.4 °F /  18.6 °C 29.93in /  1013.4hPa East 2.0mph /  3.2km/h 3.0mph /  4.8km/h 90% 0.00in /  0mm
00:29 68.4 °F /  20.2 °C 65.4 °F /  18.6 °C 29.93in /  1013.4hPa East 1.0mph /  1.6km/h 3.0mph /  4.8km/h 90% 0.00in /  0mm
00:34 68.4 °F /  20.2 °C 65.7 °F /  18.7 °C 29.93in /  1013.4hPa East 1.0mph /  1.6km/h 3.0mph /  4.8km/h 91% 0.00in /  0mm
00:39 68.4 °F /  20.2 °C 65.7 °F /  18.7 °C 29.93in /  1013.4hPa East 1.0mph /  1.6km/h 5.0mph /  8km/h 91% 0.00in /  0mm
00:44 68.3 °F /  20.2 °C 65.6 °F /  18.7 °C 29.93in /  1013.4hPa Calm   2.0mph /  3.2km/h 91% 0.00in /  0mm
00:49 68.2 °F /  20.1 °C 65.5 °F /  18.6 °C 29.93in /  1013.4hPa Calm   3.0mph /  4.8km/h 91% 0.00in /  0mm
00:54 68.2 °F /  20.1 °C 65.5 °F /  18.6 °C 29.93in /  1013.4hPa Calm     91% 0.00in /  0mm
00:59 68.2 °F /  20.1 °C 65.5 °F /  18.6 °C 29.93in /  1013.4hPa Calm     91% 0.00in /  0mm
01:04 68.1 °F /  20.1 °C 65.4 °F /  18.6 °C 29.93in /  1013.4hPa Calm   2.0mph /  3.2km/h 91% 0.00in /  0mm
01:09 68.1 °F /  20.1 °C 65.4 °F /  18.6 °C 29.93in /  1013.4hPa Calm     91% 0.00in /  0mm
01:14 68.2 °F /  20.1 °C 65.5 °F /  18.6 °C 29.93in /  1013.4hPa Calm     91% 0.00in /  0mm
01:19 68.2 °F /  20.1 °C 65.5 °F /  18.6 °C 29.93in /  1013.4hPa Calm     91% 0.00in /  0mm
01:24 68.2 °F /  20.1 °C 65.5 °F /  18.6 °C 29.93in /  1013.4hPa Calm     91% 0.00in /  0mm
01:29 68.4 °F /  20.2 °C 66.0 °F /  18.9 °C 29.93in /  1013.4hPa Calm     92% 0.00in /  0mm
01:34 68.5 °F /  20.3 °C 66.1 °F /  18.9 °C 29.93in /  1013.4hPa Calm     92% 0.00in /  0mm
01:39 68.7 °F /  20.4 °C 66.3 °F /  19.1 °C 29.93in /  1013.4hPa Calm     92% 0.00in /  0mm
01:44 68.8 °F /  20.4 °C 66.1 °F /  18.9 °C 29.93in /  1013.4hPa Calm     91% 0.00in /  0mm
01:49 68.8 °F /  20.4 °C 66.4 °F /  19.1 °C 29.93in /  1013.4hPa Calm     92% 0.00in /  0mm
01:54 68.9 °F /  20.5 °C 66.5 °F /  19.2 °C 29.93in /  1013.4hPa Calm     92% 0.00in /  0mm
01:59 69.0 °F /  20.6 °C 66.6 °F /  19.2 °C 29.93in /  1013.4hPa Calm     92% 0.00in /  0mm
02:04 69.0 °F /  20.6 °C 66.3 °F /  19.1 °C 29.93in /  1013.4hPa Calm   3.0mph /  4.8km/h 91% 0.00in /  0mm
02:09 68.9 °F /  20.5 °C 66.2 °F /  19 °C 29.93in /  1013.4hPa Calm     91% 0.00in /  0mm
02:14 68.8 °F /  20.4 °C 66.1 °F /  18.9 °C 29.93in /  1013.4hPa Calm     91% 0.00in /  0mm
02:19 68.6 °F /  20.3 °C 65.9 °F /  18.8 °C 29.93in /  1013.4hPa Calm     91% 0.00in /  0mm
02:24 68.6 °F /  20.3 °C 65.9 °F /  18.8 °C 29.93in /  1013.4hPa Calm     91% 0.00in /  0mm
02:29 68.6 °F /  20.3 °C 65.9 °F /  18.8 °C 29.93in /  1013.4hPa Calm     91% 0.00in /  0mm
02:34 68.6 °F /  20.3 °C 65.9 °F /  18.8 °C 29.92in /  1013.1hPa Calm     91% 0.00in /  0mm
02:39 68.6 °F /  20.3 °C 65.9 °F /  18.8 °C 29.92in /  1013.1hPa Calm     91% 0.00in /  0mm
02:44 68.7 °F /  20.4 °C 66.0 °F /  18.9 °C 29.92in /  1013.1hPa Calm     91% 0.00in /  0mm
02:49 68.8 °F /  20.4 °C 66.1 °F /  18.9 °C 29.92in /  1013.1hPa Calm     91% 0.00in /  0mm
02:54 68.9 °F /  20.5 °C 66.2 °F /  19 °C 29.92in /  1013.1hPa Calm     91% 0.00in /  0mm
02:59 68.9 °F /  20.5 °C 66.2 °F /  19 °C 29.92in /  1013.1hPa Calm     91% 0.00in /  0mm
03:04 69.0 °F /  20.6 °C 66.3 °F /  19.1 °C 29.92in /  1013.1hPa Calm     91% 0.00in /  0mm
03:09 69.1 °F /  20.6 °C 66.4 °F /  19.1 °C 29.91in /  1012.8hPa Calm     91% 0.00in /  0mm
03:14 69.2 °F /  20.7 °C 66.1 °F /  18.9 °C 29.91in /  1012.8hPa Calm     90% 0.00in /  0mm
03:19 69.4 °F /  20.8 °C 66.3 °F /  19.1 °C 29.91in /  1012.8hPa Calm     90% 0.00in /  0mm
03:24 69.5 °F /  20.8 °C 66.4 °F /  19.1 °C 29.91in /  1012.8hPa Calm     90% 0.00in /  0mm
03:29 69.4 °F /  20.8 °C 66.3 °F /  19.1 °C 29.91in /  1012.8hPa Calm     90% 0.00in /  0mm
03:34 69.4 °F /  20.8 °C 66.3 °F /  19.1 °C 29.91in /  1012.8hPa Calm     90% 0.00in /  0mm
03:39 69.5 °F /  20.8 °C 66.4 °F /  19.1 °C 29.91in /  1012.8hPa Calm     90% 0.00in /  0mm
03:44 69.5 °F /  20.8 °C 66.4 °F /  19.1 °C 29.91in /  1012.8hPa Calm     90% 0.00in /  0mm
03:49 69.5 °F /  20.8 °C 66.4 °F /  19.1 °C 29.91in /  1012.8hPa Calm     90% 0.00in /  0mm
03:54 69.7 °F /  20.9 °C 66.6 °F /  19.2 °C 29.91in /  1012.8hPa Calm     90% 0.00in /  0mm
03:59 69.8 °F /  21 °C 66.7 °F /  19.3 °C 29.92in /  1013.1hPa Calm     90% 0.00in /  0mm
04:04 69.8 °F /  21 °C 66.7 °F /  19.3 °C 29.92in /  1013.1hPa Calm     90% 0.00in /  0mm
04:09 69.9 °F /  21.1 °C 66.8 °F /  19.3 °C 29.92in /  1013.1hPa Calm     90% 0.00in /  0mm
04:14 69.9 °F /  21.1 °C 66.8 °F /  19.3 °C 29.92in /  1013.1hPa Calm     90% 0.00in /  0mm
04:19 69.9 °F /  21.1 °C 66.8 °F /  19.3 °C 29.92in /  1013.1hPa Calm     90% 0.00in /  0mm
04:24 70.0 °F /  21.1 °C 66.9 °F /  19.4 °C 29.92in /  1013.1hPa Calm     90% 0.00in /  0mm
04:29 70.1 °F /  21.2 °C 67.0 °F /  19.4 °C 29.92in /  1013.1hPa Calm     90% 0.00in /  0mm
04:34 70.2 °F /  21.2 °C 67.1 °F /  19.5 °C 29.92in /  1013.1hPa Calm     90% 0.00in /  0mm
04:39 70.2 °F /  21.2 °C 67.1 °F /  19.5 °C 29.92in /  1013.1hPa Calm     90% 0.00in /  0mm
04:44 70.4 °F /  21.3 °C 67.3 °F /  19.6 °C 29.92in /  1013.1hPa Calm     90% 0.00in /  0mm
04:49 70.7 °F /  21.5 °C 67.6 °F /  19.8 °C 29.92in /  1013.1hPa Calm     90% 0.00in /  0mm
04:54 70.8 °F /  21.6 °C 67.7 °F /  19.8 °C 29.92in /  1013.1hPa Calm     90% 0.00in /  0mm
04:59 71.0 °F /  21.7 °C 68.2 °F /  20.1 °C 29.92in /  1013.1hPa Calm     91% 0.00in /  0mm
05:04 71.2 °F /  21.8 °C 68.4 °F /  20.2 °C 29.92in /  1013.1hPa Calm   2.0mph /  3.2km/h 91% 0.00in /  0mm
05:09 71.3 °F /  21.8 °C 68.5 °F /  20.3 °C 29.92in /  1013.1hPa Calm     91% 0.00in /  0mm
05:14 71.4 °F /  21.9 °C 68.6 °F /  20.3 °C 29.93in /  1013.4hPa Calm     91% 0.00in /  0mm
05:19 71.5 °F /  21.9 °C 68.7 °F /  20.4 °C 29.93in /  1013.4hPa East 1.0mph /  1.6km/h 2.0mph /  3.2km/h 91% 0.00in /  0mm
05:24 71.6 °F /  22 °C 68.8 °F /  20.4 °C 29.93in /  1013.4hPa SSW 1.0mph /  1.6km/h 3.0mph /  4.8km/h 91% 0.00in /  0mm
05:29 71.8 °F /  22.1 °C 69.3 °F /  20.7 °C 29.93in /  1013.4hPa SW 2.0mph /  3.2km/h 4.0mph /  6.4km/h 92% 0.00in /  0mm
05:34 71.9 °F /  22.2 °C 69.4 °F /  20.8 °C 29.93in /  1013.4hPa WSW 2.0mph /  3.2km/h 4.0mph /  6.4km/h 92% 0.00in /  0mm
05:39 72.0 °F /  22.2 °C 69.5 °F /  20.8 °C 29.93in /  1013.4hPa Calm   4.0mph /  6.4km/h 92% 0.00in /  0mm
05:44 72.0 °F /  22.2 °C 69.5 °F /  20.8 °C 29.93in /  1013.4hPa West 1.0mph /  1.6km/h 5.0mph /  8km/h 92% 0.00in /  0mm
05:49 72.0 °F /  22.2 °C 69.5 °F /  20.8 °C 29.93in /  1013.4hPa WSW 2.0mph /  3.2km/h 5.0mph /  8km/h 92% 0.00in /  0mm
05:54 71.9 °F /  22.2 °C 69.4 °F /  20.8 °C 29.92in /  1013.1hPa SW 2.0mph /  3.2km/h 3.0mph /  4.8km/h 92% 0.00in /  0mm
05:59 71.9 °F /  22.2 °C 69.4 °F /  20.8 °C 29.92in /  1013.1hPa SW 2.0mph /  3.2km/h 4.0mph /  6.4km/h 92% 0.00in /  0mm
06:04 71.8 °F /  22.1 °C 69.3 °F /  20.7 °C 29.92in /  1013.1hPa SW 2.0mph /  3.2km/h 5.0mph /  8km/h 92% 0.00in /  0mm
06:09 71.7 °F /  22.1 °C 69.3 °F /  20.7 °C 29.92in /  1013.1hPa SW 2.0mph /  3.2km/h 5.0mph /  8km/h 92% 0.00in /  0mm
06:14 71.7 °F /  22.1 °C 69.3 °F /  20.7 °C 29.92in /  1013.1hPa SW 2.0mph /  3.2km/h 6.0mph /  9.7km/h 92% 0.00in /  0mm
06:19 71.7 °F /  22.1 °C 69.3 °F /  20.7 °C 29.93in /  1013.4hPa SW 2.0mph /  3.2km/h 6.0mph /  9.7km/h 92% 0.00in /  0mm
06:24 71.6 °F /  22 °C 69.5 °F /  20.8 °C 29.93in /  1013.4hPa WSW 1.0mph /  1.6km/h 4.0mph /  6.4km/h 93% 0.00in /  0mm
06:29 71.7 °F /  22.1 °C 69.6 °F /  20.9 °C 29.93in /  1013.4hPa WSW 2.0mph /  3.2km/h 4.0mph /  6.4km/h 93% 0.00in /  0mm
06:34 71.7 °F /  22.1 °C 69.6 °F /  20.9 °C 29.93in /  1013.4hPa SW 2.0mph /  3.2km/h 5.0mph /  8km/h 93% 0.00in /  0mm
06:39 71.8 °F /  22.1 °C 69.7 °F /  20.9 °C 29.93in /  1013.4hPa WSW 2.0mph /  3.2km/h 5.0mph /  8km/h 93% 0.00in /  0mm
06:44 71.9 °F /  22.2 °C 69.8 °F /  21 °C 29.93in /  1013.4hPa Calm   5.0mph /  8km/h 93% 0.00in /  0mm
06:49 71.9 °F /  22.2 °C 69.8 °F /  21 °C 29.93in /  1013.4hPa WSW 1.0mph /  1.6km/h 4.0mph /  6.4km/h 93% 0.00in /  0mm
06:54 72.1 °F /  22.3 °C 70.0 °F /  21.1 °C 29.92in /  1013.1hPa SW 5.0mph /  8km/h 6.0mph /  9.7km/h 93% 0.00in /  0mm
06:59 72.1 °F /  22.3 °C 70.0 °F /  21.1 °C 29.92in /  1013.1hPa SW 3.0mph /  4.8km/h 6.0mph /  9.7km/h 93% 0.00in /  0mm
07:04 72.2 °F /  22.3 °C 70.1 °F /  21.2 °C 29.92in /  1013.1hPa WSW 2.0mph /  3.2km/h 6.0mph /  9.7km/h 93% 0.00in /  0mm
07:09 72.3 °F /  22.4 °C 70.2 °F /  21.2 °C 29.93in /  1013.4hPa WSW 2.0mph /  3.2km/h 4.0mph /  6.4km/h 93% 0.00in /  0mm
07:14 72.4 °F /  22.4 °C 69.9 °F /  21.1 °C 29.92in /  1013.1hPa WSW 2.0mph /  3.2km/h 5.0mph /  8km/h 92% 0.00in /  0mm
07:19 72.4 °F /  22.4 °C 69.9 °F /  21.1 °C 29.92in /  1013.1hPa WSW 2.0mph /  3.2km/h 5.0mph /  8km/h 92% 0.00in /  0mm
07:24 72.6 °F /  22.6 °C 70.1 °F /  21.2 °C 29.93in /  1013.4hPa SW 4.0mph /  6.4km/h 5.0mph /  8km/h 92% 0.00in /  0mm
07:29 72.8 °F /  22.7 °C 70.3 °F /  21.3 °C 29.93in /  1013.4hPa WSW 3.0mph /  4.8km/h 5.0mph /  8km/h 92% 0.00in /  0mm
07:34 72.9 °F /  22.7 °C 70.4 °F /  21.3 °C 29.93in /  1013.4hPa SW 4.0mph /  6.4km/h 6.0mph /  9.7km/h 92% 0.00in /  0mm
07:39 73.0 °F /  22.8 °C 70.5 °F /  21.4 °C 29.93in /  1013.4hPa SSW 3.0mph /  4.8km/h 6.0mph /  9.7km/h 92% 0.00in /  0mm
07:44 73.2 °F /  22.9 °C 70.7 °F /  21.5 °C 29.93in /  1013.4hPa SW 6.0mph /  9.7km/h 6.0mph /  9.7km/h 92% 0.00in /  0mm
07:49 73.3 °F /  22.9 °C 70.8 °F /  21.6 °C 29.93in /  1013.4hPa SW 4.0mph /  6.4km/h 7.0mph /  11.3km/h 92% 0.00in /  0mm
07:54 73.3 °F /  22.9 °C 70.5 °F /  21.4 °C 29.93in /  1013.4hPa WSW 1.0mph /  1.6km/h 6.0mph /  9.7km/h 91% 0.00in /  0mm
07:59 73.3 °F /  22.9 °C 70.5 °F /  21.4 °C 29.93in /  1013.4hPa SW 3.0mph /  4.8km/h 6.0mph /  9.7km/h 91% 0.00in /  0mm
08:04 73.3 °F /  22.9 °C 70.5 °F /  21.4 °C 29.93in /  1013.4hPa WSW 4.0mph /  6.4km/h 8.0mph /  12.9km/h 91% 0.00in /  0mm
08:09 73.5 °F /  23.1 °C 70.7 °F /  21.5 °C 29.93in /  1013.4hPa WSW 5.0mph /  8km/h 8.0mph /  12.9km/h 91% 0.00in /  0mm
08:14 73.7 °F /  23.2 °C 70.9 °F /  21.6 °C 29.92in /  1013.1hPa WSW 3.0mph /  4.8km/h 8.0mph /  12.9km/h 91% 0.00in /  0mm
08:19 74.2 °F /  23.4 °C 71.4 °F /  21.9 °C 29.92in /  1013.1hPa West 5.0mph /  8km/h 8.0mph /  12.9km/h 91% 0.00in /  0mm
08:24 74.6 °F /  23.7 °C 71.5 °F /  21.9 °C 29.92in /  1013.1hPa WSW 4.0mph /  6.4km/h 10.0mph /  16.1km/h 90% 0.00in /  0mm
08:29 74.8 °F /  23.8 °C 71.3 °F /  21.8 °C 29.92in /  1013.1hPa SW 4.0mph /  6.4km/h 10.0mph /  16.1km/h 89% 0.00in /  0mm
08:34 74.9 °F /  23.8 °C 71.1 °F /  21.7 °C 29.92in /  1013.1hPa SW 4.0mph /  6.4km/h 12.0mph /  19.3km/h 88% 0.00in /  0mm
08:39 74.8 °F /  23.8 °C 71.0 °F /  21.7 °C 29.93in /  1013.4hPa WSW 4.0mph /  6.4km/h 12.0mph /  19.3km/h 88% 0.00in /  0mm
08:44 74.9 °F /  23.8 °C 71.1 °F /  21.7 °C 29.93in /  1013.4hPa WSW 5.0mph /  8km/h 12.0mph /  19.3km/h 88% 0.00in /  0mm
08:49 75.0 °F /  23.9 °C 70.9 °F /  21.6 °C 29.92in /  1013.1hPa WSW 4.0mph /  6.4km/h 11.0mph /  17.7km/h 87% 0.00in /  0mm
08:54 75.5 °F /  24.2 °C 71.4 °F /  21.9 °C 29.92in /  1013.1hPa SW 5.0mph /  8km/h 11.0mph /  17.7km/h 87% 0.00in /  0mm
08:59 75.6 °F /  24.2 °C 71.5 °F /  21.9 °C 29.92in /  1013.1hPa WNW 4.0mph /  6.4km/h 9.0mph /  14.5km/h 87% 0.00in /  0mm
09:04 75.6 °F /  24.2 °C 71.1 °F /  21.7 °C 29.93in /  1013.4hPa West 5.0mph /  8km/h 9.0mph /  14.5km/h 86% 0.00in /  0mm
09:09 75.1 °F /  23.9 °C 70.3 °F /  21.3 °C 29.93in /  1013.4hPa SW 7.0mph /  11.3km/h 13.0mph /  20.9km/h 85% 0.00in /  0mm
09:14 75.2 °F /  24 °C 70.7 °F /  21.5 °C 29.93in /  1013.4hPa West 3.0mph /  4.8km/h 11.0mph /  17.7km/h 86% 0.00in /  0mm
09:19 75.1 °F /  23.9 °C 70.3 °F /  21.3 °C 29.93in /  1013.4hPa SW 4.0mph /  6.4km/h 13.0mph /  20.9km/h 85% 0.00in /  0mm
09:24 75.3 °F /  24.1 °C 70.8 °F /  21.6 °C 29.93in /  1013.4hPa WSW 5.0mph /  8km/h 13.0mph /  20.9km/h 86% 0.00in /  0mm
09:29 75.7 °F /  24.3 °C 70.9 °F /  21.6 °C 29.93in /  1013.4hPa WSW 4.0mph /  6.4km/h 10.0mph /  16.1km/h 85% 0.00in /  0mm
09:34 75.6 °F /  24.2 °C 70.4 °F /  21.3 °C 29.93in /  1013.4hPa WSW 5.0mph /  8km/h 14.0mph /  22.5km/h 84% 0.00in /  0mm
09:39 75.9 °F /  24.4 °C 70.4 °F /  21.3 °C 29.93in /  1013.4hPa WSW 6.0mph /  9.7km/h 14.0mph /  22.5km/h 83% 0.00in /  0mm
09:44 76.1 °F /  24.5 °C 70.2 °F /  21.2 °C 29.93in /  1013.4hPa WSW 6.0mph /  9.7km/h 13.0mph /  20.9km/h 82% 0.00in /  0mm
09:49 75.9 °F /  24.4 °C 70.0 °F /  21.1 °C 29.93in /  1013.4hPa SW 4.0mph /  6.4km/h 11.0mph /  17.7km/h 82% 0.00in /  0mm
09:54 75.9 °F /  24.4 °C 70.0 °F /  21.1 °C 29.93in /  1013.4hPa WSW 5.0mph /  8km/h 11.0mph /  17.7km/h 82% 0.00in /  0mm
09:59 76.0 °F /  24.4 °C 69.7 °F /  20.9 °C 29.93in /  1013.4hPa WSW 6.0mph /  9.7km/h 12.0mph /  19.3km/h 81% 0.00in /  0mm
10:04 76.2 °F /  24.6 °C 69.6 °F /  20.9 °C 29.93in /  1013.4hPa WNW 6.0mph /  9.7km/h 15.0mph /  24.1km/h 80% 0.00in /  0mm
10:09 75.9 °F /  24.4 °C 69.6 °F /  20.9 °C 29.93in /  1013.4hPa WSW 7.0mph /  11.3km/h 15.0mph /  24.1km/h 81% 0.00in /  0mm
10:14 76.1 °F /  24.5 °C 70.2 °F /  21.2 °C 29.93in /  1013.4hPa WSW 5.0mph /  8km/h 15.0mph /  24.1km/h 82% 0.00in /  0mm
10:19 76.2 °F /  24.6 °C 69.9 °F /  21.1 °C 29.93in /  1013.4hPa South 12.0mph /  19.3km/h 13.0mph /  20.9km/h 81% 0.00in /  0mm
10:24 76.1 °F /  24.5 °C 70.2 °F /  21.2 °C 29.93in /  1013.4hPa WSW 6.0mph /  9.7km/h 13.0mph /  20.9km/h 82% 0.00in /  0mm
10:29 76.5 °F /  24.7 °C 70.2 °F /  21.2 °C 29.93in /  1013.4hPa South 8.0mph /  12.9km/h 12.0mph /  19.3km/h 81% 0.00in /  0mm
10:34 76.7 °F /  24.8 °C 70.4 °F /  21.3 °C 29.93in /  1013.4hPa SW 3.0mph /  4.8km/h 15.0mph /  24.1km/h 81% 0.00in /  0mm
10:39 77.1 °F /  25.1 °C 70.5 °F /  21.4 °C 29.93in /  1013.4hPa West 4.0mph /  6.4km/h 14.0mph /  22.5km/h 80% 0.00in /  0mm
10:44 76.9 °F /  24.9 °C 69.9 °F /  21.1 °C 29.94in /  1013.8hPa WNW 9.0mph /  14.5km/h 12.0mph /  19.3km/h 79% 0.00in /  0mm
10:49 75.8 °F /  24.3 °C 69.2 °F /  20.7 °C 29.93in /  1013.4hPa SSW 8.0mph /  12.9km/h 14.0mph /  22.5km/h 80% 0.00in /  0mm
10:54 75.1 °F /  23.9 °C 69.2 °F /  20.7 °C 29.93in /  1013.4hPa WSW 8.0mph /  12.9km/h 14.0mph /  22.5km/h 82% 0.00in /  0mm
10:59 74.9 °F /  23.8 °C 69.4 °F /  20.8 °C 29.93in /  1013.4hPa WSW 7.0mph /  11.3km/h 15.0mph /  24.1km/h 83% 0.00in /  0mm
11:04 75.4 °F /  24.1 °C 69.5 °F /  20.8 °C 29.93in /  1013.4hPa WSW 8.0mph /  12.9km/h 16.0mph /  25.7km/h 82% 0.00in /  0mm
11:09 76.1 °F /  24.5 °C 70.2 °F /  21.2 °C 29.93in /  1013.4hPa WSW 7.0mph /  11.3km/h 16.0mph /  25.7km/h 82% 0.00in /  0mm
11:14 76.3 °F /  24.6 °C 70.0 °F /  21.1 °C 29.94in /  1013.8hPa WSW 11.0mph /  17.7km/h 13.0mph /  20.9km/h 81% 0.00in /  0mm
11:19 76.0 °F /  24.4 °C 70.5 °F /  21.4 °C 29.94in /  1013.8hPa WNW 6.0mph /  9.7km/h 15.0mph /  24.1km/h 83% 0.00in /  0mm
11:24 76.7 °F /  24.8 °C 70.1 °F /  21.2 °C 29.94in /  1013.8hPa WSW 7.0mph /  11.3km/h 16.0mph /  25.7km/h 80% 0.00in /  0mm
11:29 76.0 °F /  24.4 °C 69.4 °F /  20.8 °C 29.94in /  1013.8hPa WSW 7.0mph /  11.3km/h 14.0mph /  22.5km/h 80% 0.00in /  0mm
11:34 75.3 °F /  24.1 °C 69.4 °F /  20.8 °C 29.94in /  1013.8hPa WNW 6.0mph /  9.7km/h 10.0mph /  16.1km/h 82% 0.00in /  0mm
11:39 74.8 °F /  23.8 °C 69.3 °F /  20.7 °C 29.94in /  1013.8hPa SW 4.0mph /  6.4km/h 12.0mph /  19.3km/h 83% 0.00in /  0mm
11:44 75.1 °F /  23.9 °C 69.2 °F /  20.7 °C 29.94in /  1013.8hPa West 4.0mph /  6.4km/h 13.0mph /  20.9km/h 82% 0.00in /  0mm
11:49 75.4 °F /  24.1 °C 69.9 °F /  21.1 °C 29.94in /  1013.8hPa WSW 5.0mph /  8km/h 12.0mph /  19.3km/h 83% 0.00in /  0mm
11:54 75.8 °F /  24.3 °C 69.9 °F /  21.1 °C 29.93in /  1013.4hPa WSW 8.0mph /  12.9km/h 15.0mph /  24.1km/h 82% 0.00in /  0mm
11:59 76.1 °F /  24.5 °C 69.8 °F /  21 °C 29.93in /  1013.4hPa SW 7.0mph /  11.3km/h 15.0mph /  24.1km/h 81% 0.00in /  0mm
12:04 76.2 °F /  24.6 °C 69.9 °F /  21.1 °C 29.94in /  1013.8hPa WSW 8.0mph /  12.9km/h 15.0mph /  24.1km/h 81% 0.00in /  0mm
12:09 76.0 °F /  24.4 °C 69.7 °F /  20.9 °C 29.94in /  1013.8hPa WSW 8.0mph /  12.9km/h 15.0mph /  24.1km/h 81% 0.00in /  0mm
12:14 76.3 °F /  24.6 °C 69.7 °F /  20.9 °C 29.93in /  1013.4hPa WSW 6.0mph /  9.7km/h 16.0mph /  25.7km/h 80% 0.00in /  0mm
12:19 76.2 °F /  24.6 °C 68.8 °F /  20.4 °C 29.93in /  1013.4hPa West 5.0mph /  8km/h 15.0mph /  24.1km/h 78% 0.00in /  0mm
12:24 76.4 °F /  24.7 °C 69.8 °F /  21 °C 29.94in /  1013.8hPa SW 4.0mph /  6.4km/h 15.0mph /  24.1km/h 80% 0.00in /  0mm
12:29 76.7 °F /  24.8 °C 69.7 °F /  20.9 °C 29.94in /  1013.8hPa WSW 8.0mph /  12.9km/h 15.0mph /  24.1km/h 79% 0.00in /  0mm
12:34 77.3 °F /  25.2 °C 69.9 °F /  21.1 °C 29.94in /  1013.8hPa WSW 6.0mph /  9.7km/h 15.0mph /  24.1km/h 78% 0.00in /  0mm
12:39 77.9 °F /  25.5 °C 69.7 °F /  20.9 °C 29.94in /  1013.8hPa West 8.0mph /  12.9km/h 17.0mph /  27.4km/h 76% 0.00in /  0mm
12:44 77.6 °F /  25.3 °C 69.4 °F /  20.8 °C 29.94in /  1013.8hPa WSW 10.0mph /  16.1km/h 16.0mph /  25.7km/h 76% 0.00in /  0mm
12:49 77.7 °F /  25.4 °C 69.9 °F /  21.1 °C 29.93in /  1013.4hPa WSW 9.0mph /  14.5km/h 13.0mph /  20.9km/h 77% 0.00in /  0mm
12:54 78.6 °F /  25.9 °C 69.6 °F /  20.9 °C 29.93in /  1013.4hPa WSW 9.0mph /  14.5km/h 13.0mph /  20.9km/h 74% 0.00in /  0mm
12:59 79.3 °F /  26.3 °C 71.1 °F /  21.7 °C 29.93in /  1013.4hPa WSW 7.0mph /  11.3km/h 15.0mph /  24.1km/h 76% 0.00in /  0mm
13:04 78.8 °F /  26 °C 69.8 °F /  21 °C 29.93in /  1013.4hPa SW 7.0mph /  11.3km/h 15.0mph /  24.1km/h 74% 0.00in /  0mm
13:09 78.1 °F /  25.6 °C 68.7 °F /  20.4 °C 29.93in /  1013.4hPa SW 8.0mph /  12.9km/h 15.0mph /  24.1km/h 73% 0.00in /  0mm
13:14 78.4 °F /  25.8 °C 69.8 °F /  21 °C 29.93in /  1013.4hPa WSW 7.0mph /  11.3km/h 16.0mph /  25.7km/h 75% 0.00in /  0mm
13:19 78.8 °F /  26 °C 69.4 °F /  20.8 °C 29.93in /  1013.4hPa SW 7.0mph /  11.3km/h 16.0mph /  25.7km/h 73% 0.00in /  0mm
13:24 78.8 °F /  26 °C 70.2 °F /  21.2 °C 29.93in /  1013.4hPa West 8.0mph /  12.9km/h 15.0mph /  24.1km/h 75% 0.00in /  0mm
13:29 78.5 °F /  25.8 °C 69.9 °F /  21.1 °C 29.93in /  1013.4hPa SW 12.0mph /  19.3km/h 14.0mph /  22.5km/h 75% 0.00in /  0mm
13:34 78.6 °F /  25.9 °C 69.2 °F /  20.7 °C 29.93in /  1013.4hPa West 12.0mph /  19.3km/h 17.0mph /  27.4km/h 73% 0.00in /  0mm
13:39 79.3 °F /  26.3 °C 69.1 °F /  20.6 °C 29.93in /  1013.4hPa WSW 9.0mph /  14.5km/h 14.0mph /  22.5km/h 71% 0.00in /  0mm
13:44 79.3 °F /  26.3 °C 68.7 °F /  20.4 °C 29.93in /  1013.4hPa SW 12.0mph /  19.3km/h 16.0mph /  25.7km/h 70% 0.00in /  0mm
13:49 79.5 °F /  26.4 °C 70.1 °F /  21.2 °C 29.93in /  1013.4hPa SW 5.0mph /  8km/h 15.0mph /  24.1km/h 73% 0.00in /  0mm
13:54 79.6 °F /  26.4 °C 68.5 °F /  20.3 °C 29.93in /  1013.4hPa WSW 5.0mph /  8km/h 13.0mph /  20.9km/h 69% 0.00in /  0mm
13:59 80.0 °F /  26.7 °C 69.7 °F /  20.9 °C 29.93in /  1013.4hPa WSW 8.0mph /  12.9km/h 17.0mph /  27.4km/h 71% 0.00in /  0mm
14:04 80.0 °F /  26.7 °C 68.9 °F /  20.5 °C 29.93in /  1013.4hPa WSW 8.0mph /  12.9km/h 17.0mph /  27.4km/h 69% 0.00in /  0mm
14:09 80.1 °F /  26.7 °C 68.6 °F /  20.3 °C 29.93in /  1013.4hPa WSW 8.0mph /  12.9km/h 16.0mph /  25.7km/h 68% 0.00in /  0mm
14:14 80.2 °F /  26.8 °C 69.5 °F /  20.8 °C 29.93in /  1013.4hPa WSW 8.0mph /  12.9km/h 18.0mph /  29km/h 70% 0.00in /  0mm
14:19 79.7 °F /  26.5 °C 68.2 °F /  20.1 °C 29.93in /  1013.4hPa South 11.0mph /  17.7km/h 18.0mph /  29km/h 68% 0.00in /  0mm
14:24 79.9 °F /  26.6 °C 68.8 °F /  20.4 °C 29.93in /  1013.4hPa SSW 5.0mph /  8km/h 14.0mph /  22.5km/h 69% 0.00in /  0mm
14:29 79.8 °F /  26.6 °C 68.7 °F /  20.4 °C 29.93in /  1013.4hPa SW 7.0mph /  11.3km/h 14.0mph /  22.5km/h 69% 0.00in /  0mm
14:34 78.7 °F /  25.9 °C 68.5 °F /  20.3 °C 29.93in /  1013.4hPa SW 8.0mph /  12.9km/h 16.0mph /  25.7km/h 71% 0.00in /  0mm
14:39 78.4 °F /  25.8 °C 67.4 °F /  19.7 °C 29.93in /  1013.4hPa SW 8.0mph /  12.9km/h 16.0mph /  25.7km/h 69% 0.00in /  0mm
14:44 77.5 °F /  25.3 °C 67.8 °F /  19.9 °C 29.93in /  1013.4hPa WSW 5.0mph /  8km/h 14.0mph /  22.5km/h 72% 0.00in /  0mm
14:49 77.1 °F /  25.1 °C 66.1 °F /  18.9 °C 29.93in /  1013.4hPa SSW 11.0mph /  17.7km/h 16.0mph /  25.7km/h 69% 0.00in /  0mm
14:54 76.9 °F /  24.9 °C 67.6 °F /  19.8 °C 29.93in /  1013.4hPa WNW 7.0mph /  11.3km/h 12.0mph /  19.3km/h 73% 0.00in /  0mm
14:59 77.8 °F /  25.4 °C 68.8 °F /  20.4 °C 29.92in /  1013.1hPa West 5.0mph /  8km/h 12.0mph /  19.3km/h 74% 0.00in /  0mm
15:04 79.3 °F /  26.3 °C 68.7 °F /  20.4 °C 29.92in /  1013.1hPa West 4.0mph /  6.4km/h 13.0mph /  20.9km/h 70% 0.00in /  0mm
15:09 79.5 °F /  26.4 °C 68.0 °F /  20 °C 29.92in /  1013.1hPa SW 7.0mph /  11.3km/h 13.0mph /  20.9km/h 68% 0.00in /  0mm
15:14 78.4 °F /  25.8 °C 67.8 °F /  19.9 °C 29.92in /  1013.1hPa SW 5.0mph /  8km/h 10.0mph /  16.1km/h 70% 0.00in /  0mm
15:19 78.4 °F /  25.8 °C 68.2 °F /  20.1 °C 29.92in /  1013.1hPa SW 12.0mph /  19.3km/h 14.0mph /  22.5km/h 71% 0.00in /  0mm
15:24 78.9 °F /  26.1 °C 68.3 °F /  20.2 °C 29.92in /  1013.1hPa SW 4.0mph /  6.4km/h 12.0mph /  19.3km/h 70% 0.00in /  0mm
15:29 78.9 °F /  26.1 °C 66.1 °F /  18.9 °C 29.92in /  1013.1hPa SW 6.0mph /  9.7km/h 12.0mph /  19.3km/h 65% 0.00in /  0mm
15:34 80.5 °F /  26.9 °C 68.1 °F /  20.1 °C 29.92in /  1013.1hPa WSW 7.0mph /  11.3km/h 14.0mph /  22.5km/h 66% 0.00in /  0mm
15:39 80.1 °F /  26.7 °C 65.9 °F /  18.8 °C 29.92in /  1013.1hPa West 7.0mph /  11.3km/h 12.0mph /  19.3km/h 62% 0.00in /  0mm
15:44 80.1 °F /  26.7 °C 66.4 °F /  19.1 °C 29.92in /  1013.1hPa WSW 7.0mph /  11.3km/h 17.0mph /  27.4km/h 63% 0.00in /  0mm
15:49 79.0 °F /  26.1 °C 65.3 °F /  18.5 °C 29.92in /  1013.1hPa WSW 8.0mph /  12.9km/h 17.0mph /  27.4km/h 63% 0.00in /  0mm
15:54 78.5 °F /  25.8 °C 66.2 °F /  19 °C 29.92in /  1013.1hPa SW 6.0mph /  9.7km/h 11.0mph /  17.7km/h 66% 0.00in /  0mm
15:59 78.2 °F /  25.7 °C 65.9 °F /  18.8 °C 29.92in /  1013.1hPa WSW 6.0mph /  9.7km/h 12.0mph /  19.3km/h 66% 0.00in /  0mm
16:04 77.7 °F /  25.4 °C 66.3 °F /  19.1 °C 29.92in /  1013.1hPa SSW 7.0mph /  11.3km/h 12.0mph /  19.3km/h 68% 0.00in /  0mm
16:09 78.2 °F /  25.7 °C 66.8 °F /  19.3 °C 29.92in /  1013.1hPa West 4.0mph /  6.4km/h 11.0mph /  17.7km/h 68% 0.00in /  0mm
16:14 79.4 °F /  26.3 °C 67.0 °F /  19.4 °C 29.92in /  1013.1hPa West 8.0mph /  12.9km/h 12.0mph /  19.3km/h 66% 0.00in /  0mm
16:19 79.0 °F /  26.1 °C 66.7 °F /  19.3 °C 29.92in /  1013.1hPa WSW 7.0mph /  11.3km/h 14.0mph /  22.5km/h 66% 0.00in /  0mm
16:24 78.1 °F /  25.6 °C 66.2 °F /  19 °C 29.92in /  1013.1hPa WNW 9.0mph /  14.5km/h 11.0mph /  17.7km/h 67% 0.00in /  0mm
16:29 77.3 °F /  25.2 °C 65.9 °F /  18.8 °C 29.92in /  1013.1hPa WSW 7.0mph /  11.3km/h 17.0mph /  27.4km/h 68% 0.00in /  0mm
16:34 77.1 °F /  25.1 °C 66.6 °F /  19.2 °C 29.92in /  1013.1hPa WSW 8.0mph /  12.9km/h 17.0mph /  27.4km/h 70% 0.00in /  0mm
16:39 76.6 °F /  24.8 °C 66.5 °F /  19.2 °C 29.92in /  1013.1hPa WSW 8.0mph /  12.9km/h 17.0mph /  27.4km/h 71% 0.00in /  0mm
16:44 76.9 °F /  24.9 °C 67.6 °F /  19.8 °C 29.92in /  1013.1hPa WSW 7.0mph /  11.3km/h 17.0mph /  27.4km/h 73% 0.00in /  0mm
16:49 77.7 °F /  25.4 °C 68.0 °F /  20 °C 29.92in /  1013.1hPa SW 5.0mph /  8km/h 12.0mph /  19.3km/h 72% 0.00in /  0mm
16:54 77.8 °F /  25.4 °C 68.0 °F /  20 °C 29.92in /  1013.1hPa WNW 8.0mph /  12.9km/h 14.0mph /  22.5km/h 72% 0.00in /  0mm
16:59 77.4 °F /  25.2 °C 68.1 °F /  20.1 °C 29.92in /  1013.1hPa SW 7.0mph /  11.3km/h 14.0mph /  22.5km/h 73% 0.00in /  0mm
17:04 77.0 °F /  25 °C 68.1 °F /  20.1 °C 29.92in /  1013.1hPa WSW 5.0mph /  8km/h 14.0mph /  22.5km/h 74% 0.00in /  0mm
17:09 76.7 °F /  24.8 °C 67.8 °F /  19.9 °C 29.92in /  1013.1hPa West 8.0mph /  12.9km/h 14.0mph /  22.5km/h 74% 0.00in /  0mm
17:14 76.5 °F /  24.7 °C 68.0 °F /  20 °C 29.92in /  1013.1hPa West 9.0mph /  14.5km/h 15.0mph /  24.1km/h 75% 0.00in /  0mm
17:19 76.6 °F /  24.8 °C 68.1 °F /  20.1 °C 29.92in /  1013.1hPa SW 6.0mph /  9.7km/h 14.0mph /  22.5km/h 75% 0.00in /  0mm
17:24 77.2 °F /  25.1 °C 68.3 °F /  20.2 °C 29.92in /  1013.1hPa WSW 7.0mph /  11.3km/h 14.0mph /  22.5km/h 74% 0.00in /  0mm
17:29 76.9 °F /  24.9 °C 68.0 °F /  20 °C 29.92in /  1013.1hPa WSW 7.0mph /  11.3km/h 16.0mph /  25.7km/h 74% 0.00in /  0mm
17:34 77.0 °F /  25 °C 67.7 °F /  19.8 °C 29.92in /  1013.1hPa WSW 7.0mph /  11.3km/h 19.0mph /  30.6km/h 73% 0.00in /  0mm
17:39 76.5 °F /  24.7 °C 66.4 °F /  19.1 °C 29.92in /  1013.1hPa SW 6.0mph /  9.7km/h 19.0mph /  30.6km/h 71% 0.00in /  0mm
17:44 75.9 °F /  24.4 °C 67.0 °F /  19.4 °C 29.92in /  1013.1hPa WSW 7.0mph /  11.3km/h 15.0mph /  24.1km/h 74% 0.00in /  0mm
17:49 75.7 °F /  24.3 °C 67.2 °F /  19.6 °C 29.92in /  1013.1hPa SW 11.0mph /  17.7km/h 12.0mph /  19.3km/h 75% 0.00in /  0mm
17:54 75.5 °F /  24.2 °C 67.4 °F /  19.7 °C 29.92in /  1013.1hPa WSW 6.0mph /  9.7km/h 15.0mph /  24.1km/h 76% 0.00in /  0mm
17:59 75.5 °F /  24.2 °C 67.8 °F /  19.9 °C 29.92in /  1013.1hPa WSW 6.0mph /  9.7km/h 15.0mph /  24.1km/h 77% 0.00in /  0mm
18:04 75.8 °F /  24.3 °C 67.7 °F /  19.8 °C 29.92in /  1013.1hPa WSW 6.0mph /  9.7km/h 12.0mph /  19.3km/h 76% 0.00in /  0mm
18:09 75.9 °F /  24.4 °C 67.8 °F /  19.9 °C 29.92in /  1013.1hPa WSW 7.0mph /  11.3km/h 17.0mph /  27.4km/h 76% 0.00in /  0mm
18:14 75.4 °F /  24.1 °C 67.3 °F /  19.6 °C 29.92in /  1013.1hPa WSW 8.0mph /  12.9km/h 17.0mph /  27.4km/h 76% 0.00in /  0mm
18:19 75.5 °F /  24.2 °C 67.0 °F /  19.4 °C 29.92in /  1013.1hPa WSW 7.0mph /  11.3km/h 17.0mph /  27.4km/h 75% 0.00in /  0mm
18:24 75.1 °F /  23.9 °C 67.0 °F /  19.4 °C 29.92in /  1013.1hPa WSW 8.0mph /  12.9km/h 19.0mph /  30.6km/h 76% 0.00in /  0mm
18:29 74.8 °F /  23.8 °C 67.1 °F /  19.5 °C 29.92in /  1013.1hPa WSW 7.0mph /  11.3km/h 15.0mph /  24.1km/h 77% 0.00in /  0mm
18:34 75.0 °F /  23.9 °C 67.3 °F /  19.6 °C 29.92in /  1013.1hPa SSW 7.0mph /  11.3km/h 14.0mph /  22.5km/h 77% 0.00in /  0mm
18:39 74.7 °F /  23.7 °C 67.0 °F /  19.4 °C 29.92in /  1013.1hPa WNW 14.0mph /  22.5km/h 14.0mph /  22.5km/h 77% 0.00in /  0mm
18:44 74.7 °F /  23.7 °C 67.0 °F /  19.4 °C 29.92in /  1013.1hPa SSW 9.0mph /  14.5km/h 14.0mph /  22.5km/h 77% 0.00in /  0mm
18:49 74.8 °F /  23.8 °C 67.5 °F /  19.7 °C 29.92in /  1013.1hPa WSW 11.0mph /  17.7km/h 16.0mph /  25.7km/h 78% 0.00in /  0mm
18:54 75.0 °F /  23.9 °C 67.3 °F /  19.6 °C 29.92in /  1013.1hPa WSW 7.0mph /  11.3km/h 16.0mph /  25.7km/h 77% 0.00in /  0mm
18:59 75.0 °F /  23.9 °C 67.3 °F /  19.6 °C 29.92in /  1013.1hPa WSW 6.0mph /  9.7km/h 12.0mph /  19.3km/h 77% 0.00in /  0mm
19:04 74.9 °F /  23.8 °C 67.6 °F /  19.8 °C 29.92in /  1013.1hPa WSW 6.0mph /  9.7km/h 12.0mph /  19.3km/h 78% 0.00in /  0mm
19:09 74.6 °F /  23.7 °C 67.3 °F /  19.6 °C 29.92in /  1013.1hPa WSW 7.0mph /  11.3km/h 13.0mph /  20.9km/h 78% 0.00in /  0mm
19:14 74.5 °F /  23.6 °C 67.2 °F /  19.6 °C 29.92in /  1013.1hPa WSW 7.0mph /  11.3km/h 13.0mph /  20.9km/h 78% 0.00in /  0mm
19:19 74.0 °F /  23.3 °C 67.1 °F /  19.5 °C 29.92in /  1013.1hPa WSW 9.0mph /  14.5km/h 13.0mph /  20.9km/h 79% 0.00in /  0mm
19:24 73.7 °F /  23.2 °C 67.1 °F /  19.5 °C 29.92in /  1013.1hPa SW 5.0mph /  8km/h 15.0mph /  24.1km/h 80% 0.00in /  0mm
19:29 73.5 °F /  23.1 °C 66.9 °F /  19.4 °C 29.92in /  1013.1hPa SW 10.0mph /  16.1km/h 15.0mph /  24.1km/h 80% 0.00in /  0mm
19:34 73.5 °F /  23.1 °C 67.3 °F /  19.6 °C 29.92in /  1013.1hPa SW 4.0mph /  6.4km/h 11.0mph /  17.7km/h 81% 0.00in /  0mm
19:39 73.5 °F /  23.1 °C 67.3 °F /  19.6 °C 29.92in /  1013.1hPa West 4.0mph /  6.4km/h 13.0mph /  20.9km/h 81% 0.00in /  0mm
19:44 73.4 °F /  23 °C 67.2 °F /  19.6 °C 29.93in /  1013.4hPa WSW 10.0mph /  16.1km/h 12.0mph /  19.3km/h 81% 0.00in /  0mm
19:49 73.4 °F /  23 °C 67.6 °F /  19.8 °C 29.93in /  1013.4hPa WNW 2.0mph /  3.2km/h 12.0mph /  19.3km/h 82% 0.00in /  0mm
19:54 72.3 °F /  22.4 °C 64.3 °F /  17.9 °C 29.93in /  1013.4hPa West 5.0mph /  8km/h 12.0mph /  19.3km/h 76% 0.00in /  0mm
19:59 71.6 °F /  22 °C 63.3 °F /  17.4 °C 29.94in /  1013.8hPa NW 4.0mph /  6.4km/h 12.0mph /  19.3km/h 75% 0.00in /  0mm
20:04 71.5 °F /  21.9 °C 63.5 °F /  17.5 °C 29.94in /  1013.8hPa NW 3.0mph /  4.8km/h 9.0mph /  14.5km/h 76% 0.00in /  0mm
20:09 71.7 °F /  22.1 °C 63.4 °F /  17.4 °C 29.93in /  1013.4hPa NNW 1.0mph /  1.6km/h 5.0mph /  8km/h 75% 0.00in /  0mm
20:14 71.8 °F /  22.1 °C 63.4 °F /  17.4 °C 29.94in /  1013.8hPa NW 2.0mph /  3.2km/h 5.0mph /  8km/h 75% 0.00in /  0mm
20:19 71.7 °F /  22.1 °C 63.4 °F /  17.4 °C 29.94in /  1013.8hPa Calm   5.0mph /  8km/h 75% 0.00in /  0mm
20:24 71.8 °F /  22.1 °C 63.4 °F /  17.4 °C 29.94in /  1013.8hPa WNW 2.0mph /  3.2km/h 6.0mph /  9.7km/h 75% 0.00in /  0mm
20:29 71.9 °F /  22.2 °C 63.2 °F /  17.3 °C 29.93in /  1013.4hPa NW 2.0mph /  3.2km/h 6.0mph /  9.7km/h 74% 0.00in /  0mm
20:34 71.8 °F /  22.1 °C 63.1 °F /  17.3 °C 29.93in /  1013.4hPa WNW 2.0mph /  3.2km/h 5.0mph /  8km/h 74% 0.00in /  0mm
20:39 71.8 °F /  22.1 °C 62.7 °F /  17.1 °C 29.93in /  1013.4hPa WNW 1.0mph /  1.6km/h 9.0mph /  14.5km/h 73% 0.00in /  0mm
20:44 71.7 °F /  22.1 °C 62.6 °F /  17 °C 29.93in /  1013.4hPa WNW 4.0mph /  6.4km/h 5.0mph /  8km/h 73% 0.00in /  0mm
20:49 71.5 °F /  21.9 °C 62.8 °F /  17.1 °C 29.93in /  1013.4hPa West 3.0mph /  4.8km/h 7.0mph /  11.3km/h 74% 0.00in /  0mm
20:54 71.4 °F /  21.9 °C 62.3 °F /  16.8 °C 29.94in /  1013.8hPa WNW 2.0mph /  3.2km/h 7.0mph /  11.3km/h 73% 0.00in /  0mm
20:59 71.4 °F /  21.9 °C 62.3 °F /  16.8 °C 29.94in /  1013.8hPa WNW 2.0mph /  3.2km/h 7.0mph /  11.3km/h 73% 0.00in /  0mm
21:04 71.4 °F /  21.9 °C 62.3 °F /  16.8 °C 29.94in /  1013.8hPa WNW 2.0mph /  3.2km/h 5.0mph /  8km/h 73% 0.00in /  0mm
21:09 71.4 °F /  21.9 °C 61.9 °F /  16.6 °C 29.94in /  1013.8hPa WNW 3.0mph /  4.8km/h 5.0mph /  8km/h 72% 0.00in /  0mm
21:14 71.4 °F /  21.9 °C 61.9 °F /  16.6 °C 29.94in /  1013.8hPa WNW 2.0mph /  3.2km/h 5.0mph /  8km/h 72% 0.00in /  0mm
21:19 71.4 °F /  21.9 °C 61.9 °F /  16.6 °C 29.94in /  1013.8hPa WNW 2.0mph /  3.2km/h 5.0mph /  8km/h 72% 0.00in /  0mm
21:24 71.3 °F /  21.8 °C 61.4 °F /  16.3 °C 29.94in /  1013.8hPa Calm   4.0mph /  6.4km/h 71% 0.00in /  0mm
21:29 70.8 °F /  21.6 °C 61.3 °F /  16.3 °C 29.94in /  1013.8hPa Calm   2.0mph /  3.2km/h 72% 0.00in /  0mm
21:34 70.7 °F /  21.5 °C 61.6 °F /  16.4 °C 29.94in /  1013.8hPa WNW 2.0mph /  3.2km/h 3.0mph /  4.8km/h 73% 0.00in /  0mm
21:39 70.7 °F /  21.5 °C 61.2 °F /  16.2 °C 29.94in /  1013.8hPa West 2.0mph /  3.2km/h 5.0mph /  8km/h 72% 0.00in /  0mm
21:44 70.7 °F /  21.5 °C 61.2 °F /  16.2 °C 29.95in /  1014.1hPa West 4.0mph /  6.4km/h 5.0mph /  8km/h 72% 0.00in /  0mm
21:49 70.6 °F /  21.4 °C 61.1 °F /  16.2 °C 29.95in /  1014.1hPa WNW 1.0mph /  1.6km/h 4.0mph /  6.4km/h 72% 0.00in /  0mm
21:54 70.5 °F /  21.4 °C 60.6 °F /  15.9 °C 29.95in /  1014.1hPa West 2.0mph /  3.2km/h 5.0mph /  8km/h 71% 0.00in /  0mm
21:59 70.6 °F /  21.4 °C 60.7 °F /  15.9 °C 29.95in /  1014.1hPa WNW 2.0mph /  3.2km/h 5.0mph /  8km/h 71% 0.00in /  0mm
22:04 70.3 °F /  21.3 °C 60.4 °F /  15.8 °C 29.96in /  1014.4hPa West 2.0mph /  3.2km/h 5.0mph /  8km/h 71% 0.00in /  0mm
22:09 70.2 °F /  21.2 °C 60.4 °F /  15.8 °C 29.95in /  1014.1hPa West 2.0mph /  3.2km/h 4.0mph /  6.4km/h 71% 0.00in /  0mm
22:14 69.9 °F /  21.1 °C 60.5 °F /  15.8 °C 29.95in /  1014.1hPa West 2.0mph /  3.2km/h 4.0mph /  6.4km/h 72% 0.00in /  0mm
22:19 69.7 °F /  20.9 °C 60.3 °F /  15.7 °C 29.95in /  1014.1hPa Calm   1.0mph /  1.6km/h 72% 0.00in /  0mm
22:24 69.3 °F /  20.7 °C 60.3 °F /  15.7 °C 29.95in /  1014.1hPa Calm     73% 0.00in /  0mm
22:29 68.9 °F /  20.5 °C 60.3 °F /  15.7 °C 29.95in /  1014.1hPa Calm     74% 0.00in /  0mm
22:34 68.6 °F /  20.3 °C 60.0 °F /  15.6 °C 29.96in /  1014.4hPa Calm     74% 0.00in /  0mm
22:39 68.3 °F /  20.2 °C 60.1 °F /  15.6 °C 29.95in /  1014.1hPa Calm     75% 0.00in /  0mm
22:44 68.1 °F /  20.1 °C 60.2 °F /  15.7 °C 29.96in /  1014.4hPa Calm     76% 0.00in /  0mm
22:49 68.2 °F /  20.1 °C 60.3 °F /  15.7 °C 29.95in /  1014.1hPa Calm   3.0mph /  4.8km/h 76% 0.00in /  0mm
22:54 68.1 °F /  20.1 °C 60.2 °F /  15.7 °C 29.96in /  1014.4hPa WNW 4.0mph /  6.4km/h 5.0mph /  8km/h 76% 0.00in /  0mm
22:59 68.1 °F /  20.1 °C 60.2 °F /  15.7 °C 29.96in /  1014.4hPa NW 1.0mph /  1.6km/h 5.0mph /  8km/h 76% 0.00in /  0mm
23:04 68.2 °F /  20.1 °C 60.3 °F /  15.7 °C 29.96in /  1014.4hPa WNW 1.0mph /  1.6km/h 4.0mph /  6.4km/h 76% 0.00in /  0mm
23:09 68.1 °F /  20.1 °C 60.2 °F /  15.7 °C 29.96in /  1014.4hPa NW 1.0mph /  1.6km/h 3.0mph /  4.8km/h 76% 0.00in /  0mm
23:14 67.9 °F /  19.9 °C 60.1 °F /  15.6 °C 29.96in /  1014.4hPa NW 1.0mph /  1.6km/h 4.0mph /  6.4km/h 76% 0.00in /  0mm
23:19 67.8 °F /  19.9 °C 60.0 °F /  15.6 °C 29.95in /  1014.1hPa NW 2.0mph /  3.2km/h 4.0mph /  6.4km/h 76% 0.00in /  0mm
23:24 67.6 °F /  19.8 °C 60.1 °F /  15.6 °C 29.96in /  1014.4hPa WNW 1.0mph /  1.6km/h 4.0mph /  6.4km/h 77% 0.00in /  0mm
23:29 67.4 °F /  19.7 °C 59.9 °F /  15.5 °C 29.95in /  1014.1hPa Calm   2.0mph /  3.2km/h 77% 0.00in /  0mm
23:39 67.2 °F /  19.6 °C 60.1 °F /  15.6 °C 29.96in /  1014.4hPa Calm   2.0mph /  3.2km/h 78% 0.00in /  0mm
23:44 67.3 °F /  19.6 °C 60.2 °F /  15.7 °C 29.95in /  1014.1hPa NNW 1.0mph /  1.6km/h 4.0mph /  6.4km/h 78% 0.00in /  0mm
23:49 67.1 °F /  19.5 °C 60.0 °F /  15.6 °C 29.96in /  1014.4hPa Calm   2.0mph /  3.2km/h 78% 0.00in /  0mm
23:54 66.8 °F /  19.3 °C 60.1 °F /  15.6 °C 29.96in /  1014.4hPa WNW 1.0mph /  1.6km/h 3.0mph /  4.8km/h 79% 0.00in /  0mm
23:59 66.8 °F /  19.3 °C 60.1 °F /  15.6 °C 29.95in /  1014.1hPa Calm   3.0mph /  4.8km/h 79% 0.00in /  0mm
Buffalo, New York, USA
Compliments of Weather Underground - 2.5 mb